METAR Data
IDs: Format: Raw Decoded Include TAF

Data at: 1330 UTC 24 Jan 2021

KBEH 241253Z AUTO 15007KT 10SM OVC060 M02/M09 A3014 RMK AO2 SNB1158E19 SLP216 P0000 T10221089
KBEH 241153Z AUTO 13006KT 10SM OVC041 M02/M09 A3015 RMK AO2 SLP220 T10221094 11022 21033 55015
KBEH 241053Z AUTO 12006KT 10SM OVC065 M02/M09 A3014 RMK AO2 SLP216 T10221089
KBEH 240953Z AUTO 14006KT 10SM OVC055 M02/M08 A3018 RMK AO2 SLP228 T10221083
KBEH 240853Z AUTO 14006KT 10SM BKN070 OVC080 M03/M08 A3020 RMK AO2 SLP233 T10281083 57013
KBEH 240753Z AUTO 13006KT 10SM OVC090 M03/M08 A3021 RMK AO2 SLP238 T10281083
KBEH 240653Z AUTO 13006KT 10SM OVC090 M03/M09 A3022 RMK AO2 SLP242 T10281089
KBEH 240553Z AUTO 13007KT 10SM OVC100 M03/M09 A3023 RMK AO2 SLP247 T10331089 11033 21044 58016
KBEH 240453Z AUTO 13005KT 10SM FEW090 SCT120 M04/M09 A3026 RMK AO2 SLP257 T10441094 410111067
KBEH 240353Z AUTO 14005KT 10SM FEW080 M04/M10 A3027 RMK AO2 SLP261 T10441100
KBEH 240253Z AUTO 14005KT 10SM BKN085 M04/M10 A3028 RMK AO2 SLP264 T10441100 58012
KBEH 240153Z AUTO 12005KT 10SM CLR M04/M10 A3030 RMK AO2 SLP270 T10441100
KBEH 240053Z AUTO 13003KT 10SM BKN110 M04/M09 A3031 RMK AO2 SLP275 T10391094
KBEH 232353Z AUTO 13003KT 10SM BKN110 M03/M09 A3032 RMK AO2 SLP276 T10331094 11011 21039 58006
KBEH 232253Z AUTO 16003KT 10SM CLR M03/M09 A3033 RMK AO2 SLP280 T10281094
KBEH 232153Z AUTO 16004KT 10SM CLR M02/M08 A3033 RMK AO2 SLP282 T10221083
KBEH 232053Z AUTO 00000KT 10SM CLR M02/M09 A3034 RMK AO2 SLP282 T10221089 58010
KBEH 231953Z AUTO 27007KT 10SM SCT023 M02/M08 A3035 RMK AO2 SLP286 T10221083
KBEH 231912Z AUTO 26007KT 220V280 10SM BKN024 M02/M07 A3036 RMK AO2 T10221072
KBEH 231853Z AUTO 27010KT 10SM SCT027 M02/M08 A3036 RMK AO2 SLP291 T10221078
KBEH 231834Z AUTO 27010KT 10SM SCT027 M02/M08 A3036 RMK AO2 T10171083
KBEH 231823Z AUTO 26006KT 10SM BKN028 M02/M08 A3036 RMK AO2 T10171083
KBEH 231811Z AUTO VRB04KT 10SM SCT028 M02/M08 A3036 RMK AO2 T10171083
KBEH 231801Z AUTO 26007KT 10SM BKN028 M02/M09 A3036 RMK AO2 T10221089
KBEH 231753Z AUTO 25003KT 10SM SCT026 M02/M09 A3037 RMK AO2 SLP292 T10221089 11017 21067 50003
KBEH 231725Z AUTO 24007KT 10SM BKN025 M02/M08 A3037 RMK AO2 T10171083
KBEH 231653Z AUTO 21005KT 10SM SCT027 M03/M08 A3038 RMK AO2 SLP299 T10281083
KBEH 231553Z AUTO 22006KT 10SM FEW025 M02/M08 A3038 RMK AO2 SLP298 T10221083
KBEH 231515Z AUTO 24004KT 10SM FEW029 M03/M09 A3037 RMK AO2 T10331089
KBEH 231453Z AUTO 22005KT 10SM OVC029 M04/M09 A3036 RMK AO2 SLP291 T10391089 51008
KBEH 231353Z AUTO 17005KT 10SM OVC031 M05/M09 A3036 RMK AO2 SLP290 T10501094
KBEH 231341Z AUTO 19005KT 10SM OVC030 M05/M09 A3036 RMK AO2 T10501094
KBEH 231253Z AUTO 19003KT 10SM OVC029 M06/M09 A3036 RMK AO2 SLP290 T10611089
KBEH 231153Z AUTO 00000KT 10SM OVC028 M06/M10 A3034 RMK AO2 SLP283 T10611100 11050 21061 53009
KBEH 231053Z AUTO 00000KT 10SM OVC026 M06/M10 A3031 RMK AO2 SLP274 T10561100
KBEH 230953Z AUTO 00000KT 10SM BKN026 M06/M11 A3031 RMK AO2 SLP273 T10561106
KBEH 230853Z AUTO 00000KT 10SM BKN028 M05/M11 A3031 RMK AO2 SLP274 T10501111 53014
KBEH 230753Z AUTO VRB03KT 10SM OVC026 M05/M11 A3029 RMK AO2 SLP267 T10501111
KBEH 230653Z AUTO VRB04KT 10SM OVC026 M05/M11 A3027 RMK AO2 SLP261 T10501111
KBEH 230553Z AUTO 31005KT 10SM OVC025 M05/M11 A3027 RMK AO2 SLP259 T10501111 11050 21067 51012
KBEH 230453Z AUTO VRB05KT 10SM OVC026 M06/M11 A3026 RMK AO2 SLP258 T10561111 400221067
KBEH 230353Z AUTO 33006KT 10SM OVC024 M06/M11 A3025 RMK AO2 SLP253 T10561111
KBEH 230253Z AUTO 31005KT 10SM OVC026 M06/M12 A3023 RMK AO2 SLP248 T10611117 51014
KBEH 230153Z AUTO VRB06KT 10SM BKN026 OVC033 M06/M12 A3022 RMK AO2 SLP244 T10611122